createdAt,value
2023-02-08T00:01:25.567Z,103426.17
2023-02-08T00:04:52.816Z,103424.91
2023-02-08T00:08:20.495Z,103427.63
2023-02-08T00:11:47.828Z,103430.95
2023-02-08T00:15:15.327Z,103431.41
2023-02-08T00:18:42.892Z,103432.66
2023-02-08T00:22:10.569Z,103428.03
2023-02-08T00:25:38.092Z,103430.23
2023-02-08T00:29:05.196Z,103431.95
2023-02-08T00:32:35.024Z,103434.67
2023-02-08T00:36:03.934Z,103434.76
2023-02-08T00:39:34.505Z,103428.57
2023-02-08T00:43:04.797Z,103429.70
2023-02-08T00:46:32.194Z,103427.49
2023-02-08T00:49:59.966Z,103418.42
2023-02-08T00:53:27.212Z,103413.69
2023-02-08T00:56:54.778Z,103423.48
2023-02-08T01:00:32.018Z,103427.16
2023-02-08T01:04:02.343Z,103431.84
2023-02-08T01:07:29.661Z,103431.69
2023-02-08T01:11:02.831Z,103433.66
2023-02-08T01:14:30.468Z,103436.78
2023-02-08T01:17:59.487Z,103437.72
2023-02-08T01:21:28.825Z,103438.87
2023-02-08T01:24:56.294Z,103441.11
2023-02-08T01:28:23.569Z,103446.84
2023-02-08T01:31:51.099Z,103450.63
2023-02-08T01:35:18.855Z,103445.02
2023-02-08T01:38:46.788Z,103448.65
2023-02-08T01:42:16.360Z,103452.77
2023-02-08T01:45:44.473Z,103455.35
2023-02-08T01:49:17.511Z,103447.70
2023-02-08T01:52:48.577Z,103451.61
2023-02-08T01:56:22.590Z,103455.30
2023-02-08T01:59:55.571Z,103450.23
2023-02-08T02:03:24.807Z,103448.06
2023-02-08T02:06:54.632Z,103455.71
2023-02-08T02:10:26.942Z,103455.86
2023-02-08T02:13:54.469Z,103457.23
2023-02-08T02:17:22.699Z,103455.36
2023-02-08T02:21:06.000Z,103453.39
2023-02-08T02:25:05.242Z,103455.89
2023-02-08T02:28:40.678Z,103451.90
2023-02-08T02:32:27.658Z,103448.86
2023-02-08T02:36:02.152Z,103448.83
2023-02-08T02:39:39.202Z,103450.14
2023-02-08T02:43:35.408Z,103448.34
2023-02-08T02:47:11.874Z,103449.70
2023-02-08T02:50:42.968Z,103450.19
2023-02-08T02:54:19.458Z,103453.46
2023-02-08T02:57:49.453Z,103448.70
2023-02-08T03:01:26.029Z,103451.38
2023-02-08T03:04:58.294Z,103453.23
2023-02-08T03:08:43.708Z,103457.10
2023-02-08T03:12:23.806Z,103456.91
2023-02-08T03:16:02.311Z,103465.46
2023-02-08T03:19:37.550Z,103470.50
2023-02-08T03:23:16.245Z,103476.36
2023-02-08T03:26:54.067Z,103480.39
2023-02-08T03:30:29.182Z,103483.58
2023-02-08T03:34:02.085Z,103482.09
2023-02-08T03:37:32.990Z,103483.19
2023-02-08T03:41:04.291Z,103476.39
2023-02-08T03:44:39.208Z,103476.65
2023-02-08T03:48:09.741Z,103477.19
2023-02-08T03:51:40.727Z,103482.95
2023-02-08T03:55:12.935Z,103478.30
2023-02-08T03:58:46.389Z,103481.63
2023-02-08T04:02:22.248Z,103480.98
2023-02-08T04:05:50.794Z,103482.80
2023-02-08T04:09:18.141Z,103475.98
2023-02-08T04:12:46.746Z,103475.96
2023-02-08T04:16:14.425Z,103475.34
2023-02-08T04:19:42.259Z,103476.13
2023-02-08T04:23:09.679Z,103472.52
2023-02-08T04:26:36.996Z,103474.89
2023-02-08T04:30:04.993Z,103479.17
2023-02-08T04:33:32.275Z,103482.92
2023-02-08T04:36:59.475Z,103484.06
2023-02-08T04:40:26.876Z,103483.52
2023-02-08T04:43:54.076Z,103482.06
2023-02-08T04:47:21.493Z,103485.14
2023-02-08T04:50:49.378Z,103481.94
2023-02-08T04:54:16.647Z,103479.13
2023-02-08T04:57:43.877Z,103482.21
2023-02-08T05:01:12.073Z,103483.78
2023-02-08T05:04:39.360Z,103488.05
2023-02-08T05:08:08.349Z,103488.60
2023-02-08T05:11:35.584Z,103491.57
2023-02-08T05:15:02.788Z,103485.45
2023-02-08T05:18:30.039Z,103490.25
2023-02-08T05:21:57.265Z,103495.86
2023-02-08T05:25:24.416Z,103499.77
2023-02-08T05:28:51.772Z,103503.83
2023-02-08T05:32:19.233Z,103504.05
2023-02-08T05:35:47.106Z,103505.38
2023-02-08T05:39:14.207Z,103508.27
2023-02-08T05:42:42.541Z,103512.15
2023-02-08T05:46:10.267Z,103509.17
2023-02-08T05:49:37.561Z,103511.13
2023-02-08T05:53:04.762Z,103513.35
2023-02-08T05:56:32.562Z,103512.23
2023-02-08T05:59:59.755Z,103510.27
2023-02-08T06:03:27.067Z,103504.20
2023-02-08T06:06:54.355Z,103502.30
2023-02-08T06:10:21.884Z,103505.38
2023-02-08T06:13:49.536Z,103512.95
2023-02-08T06:17:17.030Z,103523.08
2023-02-08T06:20:44.225Z,103521.21
2023-02-08T06:24:12.110Z,103519.96
2023-02-08T06:27:39.283Z,103521.79
2023-02-08T06:31:07.153Z,103525.30
2023-02-08T06:34:34.608Z,103532.53
2023-02-08T06:38:01.970Z,103530.54
2023-02-08T06:41:29.251Z,103534.68
2023-02-08T06:44:59.486Z,103541.04
2023-02-08T06:48:27.193Z,103543.10
2023-02-08T06:52:02.104Z,103543.30
2023-02-08T06:55:29.417Z,103548.35
2023-02-08T06:58:57.437Z,103545.98
2023-02-08T07:02:28.004Z,103550.25
2023-02-08T07:06:04.452Z,103556.73
2023-02-08T07:09:33.870Z,103558.95
2023-02-08T07:13:02.769Z,103558.23
2023-02-08T07:16:30.291Z,103560.30
2023-02-08T07:19:57.485Z,103558.39
2023-02-08T07:23:24.987Z,103557.29
2023-02-08T07:26:52.260Z,103558.80
2023-02-08T07:30:20.014Z,103555.66
2023-02-08T07:33:47.615Z,103551.08
2023-02-08T07:37:15.164Z,103549.31
2023-02-08T07:40:42.937Z,103544.79
2023-02-08T07:44:10.488Z,103537.13
2023-02-08T07:47:37.688Z,103535.18
2023-02-08T07:51:05.446Z,103537.08
2023-02-08T07:54:32.884Z,103537.48
2023-02-08T07:58:03.324Z,103537.98
2023-02-08T08:01:30.844Z,103535.02
2023-02-08T08:04:58.344Z,103531.70
2023-02-08T08:08:25.560Z,103532.53
2023-02-08T08:11:52.701Z,103515.39
2023-02-08T08:15:20.138Z,103511.48
2023-02-08T08:18:47.294Z,103511.38
2023-02-08T08:22:17.605Z,103509.68
2023-02-08T08:25:44.830Z,103519.08
2023-02-08T08:29:12.021Z,103518.44
2023-02-08T08:32:41.843Z,103519.36
2023-02-08T08:36:10.425Z,103523.00
2023-02-08T08:39:38.055Z,103525.79
2023-02-08T08:43:05.264Z,103525.59
2023-02-08T08:46:32.526Z,103527.63
2023-02-08T08:49:59.897Z,103535.80
2023-02-08T08:53:27.407Z,103535.18
2023-02-08T08:56:54.702Z,103538.19
2023-02-08T09:00:25.377Z,103534.81
2023-02-08T09:03:52.879Z,103538.21
2023-02-08T09:07:20.743Z,103535.18
2023-02-08T09:10:50.559Z,103530.31
2023-02-08T09:14:17.823Z,103532.44
2023-02-08T09:17:45.736Z,103532.40
2023-02-08T09:21:24.721Z,103533.90
2023-02-08T09:24:53.547Z,103533.98
2023-02-08T09:28:20.783Z,103537.86
2023-02-08T09:31:47.970Z,103535.98
2023-02-08T09:35:25.265Z,103543.37
2023-02-08T09:38:57.936Z,103536.52
2023-02-08T09:42:35.932Z,103534.20
2023-02-08T09:46:09.464Z,103535.48
2023-02-08T09:50:03.676Z,103533.89
2023-02-08T09:53:36.220Z,103531.30
2023-02-08T09:57:07.459Z,103532.42
2023-02-08T10:00:42.354Z,103531.27
2023-02-08T10:04:17.291Z,103529.75
2023-02-08T10:07:47.908Z,103530.12
2023-02-08T10:11:36.489Z,103526.45
2023-02-08T10:15:17.106Z,103522.27
2023-02-08T10:18:51.012Z,103520.80
2023-02-08T10:22:29.789Z,103513.80
2023-02-08T10:26:14.525Z,103517.02
2023-02-08T10:29:56.579Z,103512.05
2023-02-08T10:33:31.445Z,103512.27
2023-02-08T10:37:01.131Z,103514.86
2023-02-08T10:40:30.643Z,103506.58
2023-02-08T10:44:14.763Z,103501.79
2023-02-08T10:47:56.266Z,103497.92
2023-02-08T10:51:24.142Z,103495.92
2023-02-08T10:54:55.416Z,103498.67
2023-02-08T10:58:26.374Z,103489.14
2023-02-08T11:01:54.396Z,103483.95
2023-02-08T11:05:32.297Z,103482.66
2023-02-08T11:08:59.718Z,103479.66
2023-02-08T11:12:26.867Z,103481.88
2023-02-08T11:15:57.364Z,103475.05
2023-02-08T11:19:35.528Z,103476.08
2023-02-08T11:23:03.784Z,103470.73
2023-02-08T11:26:38.532Z,103466.11
2023-02-08T11:30:25.238Z,103459.86
2023-02-08T11:34:06.716Z,103461.50
2023-02-08T11:37:34.268Z,103466.61
2023-02-08T11:41:03.715Z,103467.44
2023-02-08T11:44:47.301Z,103465.36
2023-02-08T11:48:37.494Z,103467.44
2023-02-08T11:52:06.075Z,103466.48
2023-02-08T11:55:35.463Z,103463.86
2023-02-08T11:59:06.811Z,103460.00
2023-02-08T12:02:39.212Z,103462.92
2023-02-08T12:06:27.037Z,103462.23
2023-02-08T12:10:28.371Z,103459.48
2023-02-08T12:14:26.531Z,103449.59
2023-02-08T12:18:15.358Z,103446.24
2023-02-08T12:21:46.545Z,103442.77
2023-02-08T12:25:30.159Z,103436.89
2023-02-08T12:29:15.127Z,103435.58
2023-02-08T12:32:57.791Z,103433.55
2023-02-08T12:36:36.306Z,103429.89
2023-02-08T12:40:37.797Z,103424.98
2023-02-08T12:44:14.934Z,103418.83
2023-02-08T12:48:03.764Z,103415.75
2023-02-08T12:51:47.776Z,103417.56
2023-02-08T12:55:22.663Z,103414.66
2023-02-08T12:58:58.992Z,103415.19
2023-02-08T13:02:34.276Z,103417.58
2023-02-08T13:06:05.469Z,103414.81
2023-02-08T13:09:41.547Z,103410.95
2023-02-08T13:13:17.529Z,103411.71
2023-02-08T13:16:47.668Z,103409.65
2023-02-08T13:20:28.889Z,103408.09
2023-02-08T13:23:58.007Z,103407.80
2023-02-08T13:27:25.904Z,103405.52
2023-02-08T13:31:00.922Z,103395.77
2023-02-08T13:34:36.562Z,103394.95
2023-02-08T13:38:07.425Z,103390.60
2023-02-08T13:41:36.458Z,103383.48
2023-02-08T13:45:06.524Z,103390.82
2023-02-08T13:48:45.302Z,103386.25
2023-02-08T13:52:13.300Z,103383.98
2023-02-08T13:55:57.285Z,103385.27
2023-02-08T13:59:37.219Z,103388.23
2023-02-08T14:03:21.825Z,103393.00
2023-02-08T14:06:55.661Z,103392.57
2023-02-08T14:10:37.472Z,103387.55
2023-02-08T14:14:14.790Z,103385.41
2023-02-08T14:17:45.776Z,103384.20
2023-02-08T14:21:32.195Z,103378.91
2023-02-08T14:25:09.750Z,103380.16
2023-02-08T14:28:45.047Z,103374.98
2023-02-08T14:32:23.439Z,103373.55
2023-02-08T14:35:58.296Z,103370.69
2023-02-08T14:39:30.370Z,103361.48
2023-02-08T14:43:01.207Z,103359.48
2023-02-08T14:46:47.470Z,103354.52
2023-02-08T14:50:20.299Z,103354.60
2023-02-08T14:53:53.700Z,103348.06
2023-02-08T14:57:28.126Z,103351.91
2023-02-08T15:00:58.230Z,103353.40
2023-02-08T15:04:25.971Z,103351.46
2023-02-08T15:07:59.017Z,103352.92
2023-02-08T15:11:28.821Z,103348.98
2023-02-08T15:14:59.042Z,103344.80
2023-02-08T15:18:33.285Z,103339.78
2023-02-08T15:22:19.979Z,103341.67
2023-02-08T15:25:55.604Z,103333.51
2023-02-08T15:29:39.056Z,103328.02
2023-02-08T15:33:18.023Z,103327.48
2023-02-08T15:36:52.763Z,103324.29
2023-02-08T15:40:25.780Z,103321.64
2023-02-08T15:44:18.995Z,103317.71
2023-02-08T15:47:46.485Z,103313.03
2023-02-08T15:51:16.246Z,103313.95
2023-02-08T15:54:48.178Z,103311.14
2023-02-08T15:58:28.739Z,103307.34
2023-02-08T16:01:57.312Z,103306.70
2023-02-08T16:05:27.553Z,103308.23
2023-02-08T16:08:57.939Z,103313.41
2023-02-08T16:12:27.524Z,103314.23
2023-02-08T16:16:03.774Z,103311.85
2023-02-08T16:19:35.944Z,103304.96
2023-02-08T16:23:05.149Z,103310.40
2023-02-08T16:26:36.898Z,103311.80
2023-02-08T16:30:04.262Z,103312.43
2023-02-08T16:33:32.971Z,103315.77
2023-02-08T16:37:01.100Z,103319.51
2023-02-08T16:40:51.574Z,103321.92
2023-02-08T16:44:28.037Z,103328.20
2023-02-08T16:48:36.076Z,103324.48
2023-02-08T16:52:03.415Z,103324.16
2023-02-08T16:55:34.791Z,103327.13
2023-02-08T16:59:02.214Z,103327.60
2023-02-08T17:02:29.454Z,103330.73
2023-02-08T17:05:57.351Z,103326.77
2023-02-08T17:09:24.510Z,103316.33
2023-02-08T17:12:52.980Z,103311.85
2023-02-08T17:16:24.754Z,103306.58
2023-02-08T17:20:03.443Z,103299.12
2023-02-08T17:23:38.253Z,103303.10
2023-02-08T17:27:05.630Z,103296.11
2023-02-08T17:30:36.217Z,103300.84
2023-02-08T17:34:05.323Z,103300.46
2023-02-08T17:37:32.641Z,103300.32
2023-02-08T17:41:05.872Z,103293.55
2023-02-08T17:44:34.148Z,103295.98
2023-02-08T17:48:13.618Z,103298.58
2023-02-08T17:51:41.921Z,103295.55
2023-02-08T17:55:12.715Z,103293.45
2023-02-08T17:58:40.495Z,103291.45
2023-02-08T18:02:08.849Z,103289.98
2023-02-08T18:05:38.974Z,103285.64
2023-02-08T18:09:06.390Z,103286.93
2023-02-08T18:12:35.371Z,103292.70
2023-02-08T18:16:10.065Z,103291.09
2023-02-08T18:19:38.353Z,103287.52
2023-02-08T18:23:05.741Z,103285.45
2023-02-08T18:26:36.789Z,103281.04
2023-02-08T18:30:04.140Z,103279.80
2023-02-08T18:33:31.719Z,103276.66
2023-02-08T18:37:02.332Z,103271.77
2023-02-08T18:40:31.357Z,103271.98
2023-02-08T18:44:00.660Z,103276.84
2023-02-08T18:47:27.954Z,103273.04
2023-02-08T18:50:59.174Z,103265.54
2023-02-08T18:54:26.640Z,103259.15
2023-02-08T18:57:53.894Z,103260.64
2023-02-08T19:01:23.333Z,103253.11
2023-02-08T19:04:49.328Z,103247.64
2023-02-08T19:08:18.178Z,103243.95
2023-02-08T19:11:47.261Z,103233.46
2023-02-08T19:15:14.485Z,103228.72
2023-02-08T19:18:41.809Z,103229.89
2023-02-08T19:22:09.080Z,103224.20
2023-02-08T19:25:39.904Z,103220.16
2023-02-08T19:29:09.266Z,103216.34
2023-02-08T19:32:36.513Z,103213.13
2023-02-08T19:36:09.535Z,103211.71
2023-02-08T19:39:36.950Z,103207.45
2023-02-08T19:43:04.321Z,103201.22
2023-02-08T19:46:33.073Z,103196.25
2023-02-08T19:50:00.531Z,103192.70
2023-02-08T19:53:28.449Z,103188.27
2023-02-08T19:56:56.071Z,103184.80
2023-02-08T20:00:25.811Z,103179.98
2023-02-08T20:03:54.475Z,103173.33
2023-02-08T20:07:21.685Z,103169.80
2023-02-08T20:10:50.741Z,103172.38
2023-02-08T20:14:16.831Z,103167.07
2023-02-08T20:17:44.805Z,103166.29
2023-02-08T20:21:12.685Z,103156.50
2023-02-08T20:24:40.053Z,103149.54
2023-02-08T20:28:07.976Z,103144.91
2023-02-08T20:31:37.307Z,103145.45
2023-02-08T20:35:04.787Z,103150.77
2023-02-08T20:38:32.243Z,103151.22
2023-02-08T20:41:59.420Z,103145.63
2023-02-08T20:45:27.480Z,103143.38
2023-02-08T20:48:56.506Z,103147.59
2023-02-08T20:52:23.575Z,103155.30
2023-02-08T20:55:50.850Z,103156.96
2023-02-08T20:59:18.280Z,103154.38
2023-02-08T21:02:45.761Z,103154.90
2023-02-08T21:06:18.435Z,103154.10
2023-02-08T21:09:46.110Z,103146.42
2023-02-08T21:13:13.435Z,103138.42
2023-02-08T21:16:41.234Z,103126.37
2023-02-08T21:20:10.148Z,103117.99
2023-02-08T21:23:38.643Z,103118.24
2023-02-08T21:27:06.770Z,103115.93
2023-02-08T21:30:34.008Z,103109.90
2023-02-08T21:34:03.102Z,103112.66
2023-02-08T21:37:30.299Z,103112.13
2023-02-08T21:40:57.614Z,103106.38
2023-02-08T21:44:24.825Z,103096.86
2023-02-08T21:47:52.281Z,103096.99
2023-02-08T21:51:37.443Z,103091.80
2023-02-08T21:55:04.807Z,103091.61
2023-02-08T21:58:32.246Z,103087.56
2023-02-08T22:01:59.588Z,103079.99
2023-02-08T22:05:26.896Z,103078.54
2023-02-08T22:08:54.449Z,103074.67
2023-02-08T22:12:23.537Z,103073.00
2023-02-08T22:15:50.972Z,103070.59
2023-02-08T22:19:18.880Z,103063.83
2023-02-08T22:22:46.547Z,103062.41
2023-02-08T22:26:16.585Z,103057.02
2023-02-08T22:29:43.936Z,103050.29
2023-02-08T22:33:13.925Z,103051.33
2023-02-08T22:36:50.451Z,103055.25
2023-02-08T22:40:17.753Z,103054.77
2023-02-08T22:43:45.470Z,103050.61
2023-02-08T22:47:14.298Z,103044.64
2023-02-08T22:50:41.661Z,103044.92
2023-02-08T22:54:09.194Z,103044.27
2023-02-08T22:57:39.412Z,103047.67
2023-02-08T23:01:12.969Z,103046.69
2023-02-08T23:04:42.648Z,103041.11
2023-02-08T23:08:14.162Z,103046.00
2023-02-08T23:11:41.464Z,103047.45
2023-02-08T23:15:11.220Z,103043.23
2023-02-08T23:18:39.454Z,103040.30
2023-02-08T23:22:06.929Z,103035.85
2023-02-08T23:25:34.284Z,103032.92
2023-02-08T23:29:01.611Z,103035.88
2023-02-08T23:32:29.003Z,103038.91
2023-02-08T23:35:58.835Z,103042.16
2023-02-08T23:39:28.739Z,103041.94
2023-02-08T23:42:56.202Z,103038.77
2023-02-08T23:46:24.940Z,103030.05
2023-02-08T23:49:55.934Z,103019.59
2023-02-08T23:53:23.322Z,103014.02
2023-02-08T23:56:52.142Z,103014.61
